sensor_id;sensor_type;location;lat;lon;timestamp;pressure;altitude;pressure_sealevel;temperature;humidity
13312;BME280;34033;48.672;9.376;2023-09-19T00:01:28;98141.50;;;20.84;72.22
13312;BME280;34033;48.672;9.376;2023-09-19T00:03:55;98145.88;;;20.75;72.32
13312;BME280;34033;48.672;9.376;2023-09-19T00:06:22;98157.22;;;20.75;72.54
13312;BME280;34033;48.672;9.376;2023-09-19T00:08:51;98164.34;;;20.80;72.11
13312;BME280;34033;48.672;9.376;2023-09-19T00:11:16;98163.44;;;20.83;72.04
13312;BME280;34033;48.672;9.376;2023-09-19T00:13:41;98166.31;;;20.92;71.97
13312;BME280;34033;48.672;9.376;2023-09-19T00:16:09;98173.13;;;20.95;71.49
13312;BME280;34033;48.672;9.376;2023-09-19T00:18:36;98170.31;;;21.04;71.35
13312;BME280;34033;48.672;9.376;2023-09-19T00:21:02;98168.88;;;20.99;71.08
13312;BME280;34033;48.672;9.376;2023-09-19T00:23:29;98175.25;;;20.81;71.93
13312;BME280;34033;48.672;9.376;2023-09-19T00:25:59;98181.66;;;20.95;71.52
13312;BME280;34033;48.672;9.376;2023-09-19T00:28:24;98181.94;;;20.97;71.27
13312;BME280;34033;48.672;9.376;2023-09-19T00:30:49;98190.53;;;21.06;70.90
13312;BME280;34033;48.672;9.376;2023-09-19T00:33:15;98186.75;;;21.09;70.91
13312;BME280;34033;48.672;9.376;2023-09-19T00:35:54;98186.75;;;21.09;70.77
13312;BME280;34033;48.672;9.376;2023-09-19T00:38:22;98196.88;;;21.10;70.68
13312;BME280;34033;48.672;9.376;2023-09-19T00:40:50;98196.22;;;21.06;70.76
13312;BME280;34033;48.672;9.376;2023-09-19T00:43:19;98191.78;;;21.05;70.75
13312;BME280;34033;48.672;9.376;2023-09-19T00:45:47;98181.81;;;21.00;71.03
13312;BME280;34033;48.672;9.376;2023-09-19T00:48:14;98190.84;;;21.08;71.04
13312;BME280;34033;48.672;9.376;2023-09-19T00:50:41;98187.53;;;21.09;70.59
13312;BME280;34033;48.672;9.376;2023-09-19T00:53:07;98185.78;;;21.12;70.77
13312;BME280;34033;48.672;9.376;2023-09-19T00:55:36;98184.28;;;21.20;70.62
13312;BME280;34033;48.672;9.376;2023-09-19T00:58:02;98182.41;;;21.17;70.12
13312;BME280;34033;48.672;9.376;2023-09-19T01:00:28;98182.72;;;21.28;70.03
13312;BME280;34033;48.672;9.376;2023-09-19T01:02:54;98195.06;;;21.34;69.70
13312;BME280;34033;48.672;9.376;2023-09-19T01:05:19;98191.13;;;21.32;69.42
13312;BME280;34033;48.672;9.376;2023-09-19T01:07:45;98193.94;;;21.23;69.79
13312;BME280;34033;48.672;9.376;2023-09-19T01:10:15;98191.97;;;21.10;70.23
13312;BME280;34033;48.672;9.376;2023-09-19T01:17:47;98203.09;;;20.65;72.13
13312;BME280;34033;48.672;9.376;2023-09-19T01:20:21;98207.97;;;20.64;71.90
13312;BME280;34033;48.672;9.376;2023-09-19T01:25:50;98198.81;;;20.38;73.32
13312;BME280;34033;48.672;9.376;2023-09-19T01:31:12;98200.44;;;20.70;71.66
13312;BME280;34033;48.672;9.376;2023-09-19T01:33:57;98209.94;;;20.76;70.10
13312;BME280;34033;48.672;9.376;2023-09-19T01:36:30;98205.38;;;20.79;70.46
13312;BME280;34033;48.672;9.376;2023-09-19T01:38:57;98200.88;;;20.91;69.81
13312;BME280;34033;48.672;9.376;2023-09-19T01:41:33;98201.22;;;21.02;69.38
13312;BME280;34033;48.672;9.376;2023-09-19T01:44:03;98204.66;;;21.18;68.71
13312;BME280;34033;48.672;9.376;2023-09-19T01:46:38;98209.91;;;21.29;68.04
13312;BME280;34033;48.672;9.376;2023-09-19T01:49:44;98218.78;;;21.40;67.58
13312;BME280;34033;48.672;9.376;2023-09-19T01:52:13;98217.25;;;21.48;67.20
13312;BME280;34033;48.672;9.376;2023-09-19T01:54:46;98219.81;;;21.55;66.98
13312;BME280;34033;48.672;9.376;2023-09-19T01:57:27;98232.44;;;21.54;66.88
13312;BME280;34033;48.672;9.376;2023-09-19T02:00:10;98225.31;;;21.50;66.83
13312;BME280;34033;48.672;9.376;2023-09-19T02:02:42;98235.22;;;21.36;67.21
13312;BME280;34033;48.672;9.376;2023-09-19T02:05:09;98235.84;;;21.40;67.42
13312;BME280;34033;48.672;9.376;2023-09-19T02:07:35;98239.03;;;21.42;67.14
13312;BME280;34033;48.672;9.376;2023-09-19T02:10:01;98236.81;;;21.46;67.12
13312;BME280;34033;48.672;9.376;2023-09-19T02:12:27;98243.47;;;21.52;66.77
13312;BME280;34033;48.672;9.376;2023-09-19T02:14:52;98246.56;;;21.27;66.11
13312;BME280;34033;48.672;9.376;2023-09-19T02:17:18;98248.63;;;21.36;67.15
13312;BME280;34033;48.672;9.376;2023-09-19T02:19:44;98253.53;;;21.35;66.86
13312;BME280;34033;48.672;9.376;2023-09-19T02:22:09;98254.28;;;21.27;67.01
13312;BME280;34033;48.672;9.376;2023-09-19T02:24:36;98262.53;;;21.12;67.65
13312;BME280;34033;48.672;9.376;2023-09-19T02:27:03;98270.53;;;21.17;67.71
13312;BME280;34033;48.672;9.376;2023-09-19T02:29:31;98262.44;;;21.15;67.47
13312;BME280;34033;48.672;9.376;2023-09-19T02:31:57;98266.41;;;21.18;67.83
13312;BME280;34033;48.672;9.376;2023-09-19T02:34:22;98272.00;;;21.09;68.07
13312;BME280;34033;48.672;9.376;2023-09-19T02:36:48;98266.88;;;21.16;67.97
13312;BME280;34033;48.672;9.376;2023-09-19T02:39:14;98268.16;;;21.25;67.56
13312;BME280;34033;48.672;9.376;2023-09-19T02:41:39;98269.31;;;21.05;68.36
13312;BME280;34033;48.672;9.376;2023-09-19T02:44:07;98269.25;;;21.18;68.16
13312;BME280;34033;48.672;9.376;2023-09-19T02:46:32;98267.19;;;20.97;68.60
13312;BME280;34033;48.672;9.376;2023-09-19T02:48:58;98263.50;;;20.87;69.32
13312;BME280;34033;48.672;9.376;2023-09-19T02:51:23;98272.00;;;20.78;69.32
13312;BME280;34033;48.672;9.376;2023-09-19T02:53:49;98269.06;;;20.91;69.37
13312;BME280;34033;48.672;9.376;2023-09-19T02:56:17;98260.72;;;20.96;69.06
13312;BME280;34033;48.672;9.376;2023-09-19T02:58:43;98275.69;;;20.88;69.17
13312;BME280;34033;48.672;9.376;2023-09-19T03:01:09;98272.31;;;20.58;70.76
13312;BME280;34033;48.672;9.376;2023-09-19T03:03:37;98278.72;;;20.71;70.11
13312;BME280;34033;48.672;9.376;2023-09-19T03:06:05;98274.09;;;20.87;69.76
13312;BME280;34033;48.672;9.376;2023-09-19T03:08:31;98271.03;;;21.03;69.15
13312;BME280;34033;48.672;9.376;2023-09-19T03:10:56;98273.22;;;20.99;68.99
13312;BME280;34033;48.672;9.376;2023-09-19T03:13:21;98269.91;;;21.00;68.92
13312;BME280;34033;48.672;9.376;2023-09-19T03:15:47;98276.84;;;20.99;68.93
13312;BME280;34033;48.672;9.376;2023-09-19T03:18:15;98274.34;;;20.36;70.81
13312;BME280;34033;48.672;9.376;2023-09-19T03:20:40;98281.22;;;20.69;70.69
13312;BME280;34033;48.672;9.376;2023-09-19T03:23:06;98268.16;;;20.72;71.46
13312;BME280;34033;48.672;9.376;2023-09-19T03:25:34;98271.50;;;20.79;70.82
13312;BME280;34033;48.672;9.376;2023-09-19T03:27:59;98277.13;;;20.49;71.19
13312;BME280;34033;48.672;9.376;2023-09-19T03:30:25;98271.91;;;20.47;71.55
13312;BME280;34033;48.672;9.376;2023-09-19T03:32:51;98275.03;;;20.62;71.65
13312;BME280;34033;48.672;9.376;2023-09-19T03:35:17;98273.16;;;20.68;70.49
13312;BME280;34033;48.672;9.376;2023-09-19T03:37:43;98273.69;;;20.54;71.31
13312;BME280;34033;48.672;9.376;2023-09-19T03:40:09;98277.94;;;20.49;71.56
13312;BME280;34033;48.672;9.376;2023-09-19T03:42:41;98279.38;;;20.54;71.49
13312;BME280;34033;48.672;9.376;2023-09-19T03:45:07;98274.28;;;20.70;70.89
13312;BME280;34033;48.672;9.376;2023-09-19T03:47:36;98269.16;;;20.78;70.30
13312;BME280;34033;48.672;9.376;2023-09-19T03:50:01;98283.63;;;20.71;70.41
13312;BME280;34033;48.672;9.376;2023-09-19T03:52:26;98284.00;;;20.60;70.72
13312;BME280;34033;48.672;9.376;2023-09-19T03:54:52;98282.84;;;20.36;71.54
13312;BME280;34033;48.672;9.376;2023-09-19T03:57:17;98275.34;;;20.42;71.78
13312;BME280;34033;48.672;9.376;2023-09-19T03:59:46;98273.63;;;19.97;73.47
13312;BME280;34033;48.672;9.376;2023-09-19T04:02:11;98277.06;;;20.27;72.80
13312;BME280;34033;48.672;9.376;2023-09-19T04:04:47;98266.69;;;20.46;72.37
13312;BME280;34033;48.672;9.376;2023-09-19T04:07:13;98266.81;;;20.42;72.23
13312;BME280;34033;48.672;9.376;2023-09-19T04:09:38;98272.09;;;19.84;74.16
13312;BME280;34033;48.672;9.376;2023-09-19T04:12:03;98276.16;;;19.83;74.48
13312;BME280;34033;48.672;9.376;2023-09-19T04:14:30;98268.94;;;19.56;75.62
13312;BME280;34033;48.672;9.376;2023-09-19T04:16:55;98276.06;;;19.36;76.80
13312;BME280;34033;48.672;9.376;2023-09-19T04:19:20;98276.50;;;19.22;77.80
13312;BME280;34033;48.672;9.376;2023-09-19T04:21:48;98284.78;;;19.16;78.11
13312;BME280;34033;48.672;9.376;2023-09-19T04:24:13;98293.06;;;19.10;78.75
13312;BME280;34033;48.672;9.376;2023-09-19T04:26:39;98298.13;;;19.03;79.05
13312;BME280;34033;48.672;9.376;2023-09-19T04:29:04;98294.25;;;18.97;79.58
13312;BME280;34033;48.672;9.376;2023-09-19T04:31:31;98287.47;;;18.94;79.49
13312;BME280;34033;48.672;9.376;2023-09-19T04:33:56;98290.19;;;18.85;80.16
13312;BME280;34033;48.672;9.376;2023-09-19T04:36:23;98303.44;;;18.88;80.19
13312;BME280;34033;48.672;9.376;2023-09-19T04:38:48;98304.34;;;18.85;80.64
13312;BME280;34033;48.672;9.376;2023-09-19T04:41:15;98310.09;;;18.82;80.77
13312;BME280;34033;48.672;9.376;2023-09-19T04:43:40;98300.47;;;18.79;81.03
13312;BME280;34033;48.672;9.376;2023-09-19T04:46:06;98302.59;;;18.75;80.85
13312;BME280;34033;48.672;9.376;2023-09-19T04:48:32;98301.56;;;18.69;81.62
13312;BME280;34033;48.672;9.376;2023-09-19T04:50:59;98307.31;;;18.65;81.88
13312;BME280;34033;48.672;9.376;2023-09-19T04:53:24;98302.75;;;18.55;82.61
13312;BME280;34033;48.672;9.376;2023-09-19T04:55:51;98301.44;;;18.44;83.18
13312;BME280;34033;48.672;9.376;2023-09-19T04:58:18;98305.44;;;18.46;83.58
13312;BME280;34033;48.672;9.376;2023-09-19T05:00:44;98309.56;;;18.42;84.00
13312;BME280;34033;48.672;9.376;2023-09-19T05:03:10;98308.81;;;18.41;84.25
13312;BME280;34033;48.672;9.376;2023-09-19T05:05:35;98313.47;;;18.03;86.72
13312;BME280;34033;48.672;9.376;2023-09-19T05:08:00;98319.03;;;18.06;86.79
13312;BME280;34033;48.672;9.376;2023-09-19T05:10:30;98324.16;;;18.11;86.59
13312;BME280;34033;48.672;9.376;2023-09-19T05:12:55;98322.38;;;18.17;86.83
13312;BME280;34033;48.672;9.376;2023-09-19T05:15:20;98321.84;;;18.22;86.62
13312;BME280;34033;48.672;9.376;2023-09-19T05:17:50;98327.75;;;18.28;86.28
13312;BME280;34033;48.672;9.376;2023-09-19T05:20:17;98338.97;;;18.31;86.05
13312;BME280;34033;48.672;9.376;2023-09-19T05:22:49;98332.69;;;18.40;85.68
13312;BME280;34033;48.672;9.376;2023-09-19T05:25:15;98338.25;;;18.44;85.58
13312;BME280;34033;48.672;9.376;2023-09-19T05:27:44;98358.84;;;18.44;85.23
13312;BME280;34033;48.672;9.376;2023-09-19T05:30:09;98353.78;;;18.52;86.12
13312;BME280;34033;48.672;9.376;2023-09-19T05:32:35;98355.31;;;18.56;86.56
13312;BME280;34033;48.672;9.376;2023-09-19T05:35:00;98362.56;;;18.57;86.68
13312;BME280;34033;48.672;9.376;2023-09-19T05:37:26;98366.19;;;18.58;87.77
13312;BME280;34033;48.672;9.376;2023-09-19T05:39:51;98370.97;;;18.45;88.61
13312;BME280;34033;48.672;9.376;2023-09-19T05:42:18;98364.63;;;18.24;90.13
13312;BME280;34033;48.672;9.376;2023-09-19T05:44:43;98357.81;;;18.22;91.16
13312;BME280;34033;48.672;9.376;2023-09-19T05:47:08;98361.81;;;18.24;90.97
13312;BME280;34033;48.672;9.376;2023-09-19T05:49:36;98367.91;;;18.23;91.63
13312;BME280;34033;48.672;9.376;2023-09-19T05:52:06;98371.53;;;18.23;92.03
13312;BME280;34033;48.672;9.376;2023-09-19T05:54:32;98372.03;;;18.34;92.25
13312;BME280;34033;48.672;9.376;2023-09-19T05:56:59;98375.03;;;18.44;92.19
13312;BME280;34033;48.672;9.376;2023-09-19T05:59:25;98379.81;;;18.47;91.68
13312;BME280;34033;48.672;9.376;2023-09-19T06:01:50;98386.91;;;18.55;91.46
13312;BME280;34033;48.672;9.376;2023-09-19T06:04:17;98376.50;;;18.64;90.76
13312;BME280;34033;48.672;9.376;2023-09-19T06:06:44;98374.59;;;18.61;90.52
13312;BME280;34033;48.672;9.376;2023-09-19T06:09:09;98386.16;;;18.67;89.49
13312;BME280;34033;48.672;9.376;2023-09-19T06:11:35;98394.13;;;18.72;90.13
13312;BME280;34033;48.672;9.376;2023-09-19T06:14:01;98388.44;;;18.72;88.10
13312;BME280;34033;48.672;9.376;2023-09-19T06:16:28;98401.53;;;18.82;88.48
13312;BME280;34033;48.672;9.376;2023-09-19T06:18:54;98406.09;;;18.92;87.82
13312;BME280;34033;48.672;9.376;2023-09-19T06:21:21;98402.00;;;18.93;87.72
13312;BME280;34033;48.672;9.376;2023-09-19T06:23:47;98400.66;;;18.53;89.40
13312;BME280;34033;48.672;9.376;2023-09-19T06:26:12;98406.84;;;18.64;89.43
13312;BME280;34033;48.672;9.376;2023-09-19T06:28:38;98414.34;;;18.58;89.08
13312;BME280;34033;48.672;9.376;2023-09-19T06:31:03;98410.22;;;18.59;89.58
13312;BME280;34033;48.672;9.376;2023-09-19T06:33:33;98419.09;;;18.61;89.42
13312;BME280;34033;48.672;9.376;2023-09-19T06:35:58;98431.78;;;18.53;89.98
13312;BME280;34033;48.672;9.376;2023-09-19T06:38:25;98431.47;;;18.51;90.53
13312;BME280;34033;48.672;9.376;2023-09-19T06:40:50;98440.50;;;18.46;89.96
13312;BME280;34033;48.672;9.376;2023-09-19T06:43:17;98445.94;;;18.53;90.12
13312;BME280;34033;48.672;9.376;2023-09-19T06:45:43;98452.28;;;18.60;89.68
13312;BME280;34033;48.672;9.376;2023-09-19T06:48:08;98461.19;;;18.59;89.82
13312;BME280;34033;48.672;9.376;2023-09-19T06:50:35;98461.97;;;18.43;88.77
13312;BME280;34033;48.672;9.376;2023-09-19T06:53:01;98461.97;;;18.43;89.97
13312;BME280;34033;48.672;9.376;2023-09-19T06:55:27;98466.13;;;18.39;88.83
13312;BME280;34033;48.672;9.376;2023-09-19T06:57:53;98464.00;;;18.43;88.77
13312;BME280;34033;48.672;9.376;2023-09-19T07:00:22;98458.84;;;18.57;89.56
13312;BME280;34033;48.672;9.376;2023-09-19T07:03:01;98463.16;;;18.62;87.24
13312;BME280;34033;48.672;9.376;2023-09-19T07:05:29;98476.22;;;18.72;87.88
13312;BME280;34033;48.672;9.376;2023-09-19T07:07:54;98482.41;;;18.83;86.87
13312;BME280;34033;48.672;9.376;2023-09-19T07:10:30;98479.59;;;18.83;86.51
13312;BME280;34033;48.672;9.376;2023-09-19T07:15:28;98475.81;;;19.02;86.48
13312;BME280;34033;48.672;9.376;2023-09-19T07:17:56;98478.38;;;19.13;86.61
13312;BME280;34033;48.672;9.376;2023-09-19T07:20:23;98475.69;;;19.22;85.27
13312;BME280;34033;48.672;9.376;2023-09-19T07:22:51;98475.81;;;19.31;84.36
13312;BME280;34033;48.672;9.376;2023-09-19T07:25:17;98484.28;;;19.47;83.44
13312;BME280;34033;48.672;9.376;2023-09-19T07:27:43;98486.13;;;19.54;82.32
13312;BME280;34033;48.672;9.376;2023-09-19T07:30:09;98485.44;;;19.50;80.04
13312;BME280;34033;48.672;9.376;2023-09-19T07:32:35;98497.47;;;19.54;79.73
13312;BME280;34033;48.672;9.376;2023-09-19T07:35:02;98492.28;;;19.65;80.36
13312;BME280;34033;48.672;9.376;2023-09-19T07:37:29;98499.44;;;19.70;80.40
13312;BME280;34033;48.672;9.376;2023-09-19T07:39:56;98493.22;;;19.87;79.97
13312;BME280;34033;48.672;9.376;2023-09-19T07:42:21;98500.25;;;19.83;79.52
13312;BME280;34033;48.672;9.376;2023-09-19T07:44:47;98492.78;;;19.89;79.46
13312;BME280;34033;48.672;9.376;2023-09-19T07:47:15;98502.09;;;19.89;79.51
13312;BME280;34033;48.672;9.376;2023-09-19T07:49:41;98507.41;;;19.87;78.76
13312;BME280;34033;48.672;9.376;2023-09-19T07:52:08;98507.97;;;19.82;77.92
13312;BME280;34033;48.672;9.376;2023-09-19T07:54:34;98509.22;;;19.81;78.60
13312;BME280;34033;48.672;9.376;2023-09-19T07:57:01;98508.09;;;19.91;78.76
13312;BME280;34033;48.672;9.376;2023-09-19T07:59:26;98511.31;;;20.06;79.15
13312;BME280;34033;48.672;9.376;2023-09-19T08:01:52;98506.91;;;20.18;78.94
13312;BME280;34033;48.672;9.376;2023-09-19T08:04:17;98511.09;;;20.26;79.19
13312;BME280;34033;48.672;9.376;2023-09-19T08:06:44;98502.59;;;20.38;78.28
13312;BME280;34033;48.672;9.376;2023-09-19T08:09:10;98513.47;;;20.40;77.67
13312;BME280;34033;48.672;9.376;2023-09-19T08:11:36;98506.56;;;20.41;75.70
13312;BME280;34033;48.672;9.376;2023-09-19T08:14:02;98513.84;;;20.55;75.45
13312;BME280;34033;48.672;9.376;2023-09-19T08:16:27;98509.97;;;20.61;76.01
13312;BME280;34033;48.672;9.376;2023-09-19T08:18:53;98518.63;;;20.45;77.22
13312;BME280;34033;48.672;9.376;2023-09-19T08:21:22;98518.03;;;20.50;75.67
13312;BME280;34033;48.672;9.376;2023-09-19T08:23:48;98517.47;;;20.43;75.06
13312;BME280;34033;48.672;9.376;2023-09-19T08:26:14;98515.78;;;20.45;74.81
13312;BME280;34033;48.672;9.376;2023-09-19T08:28:39;98513.84;;;20.42;73.80
13312;BME280;34033;48.672;9.376;2023-09-19T08:31:07;98511.88;;;20.64;75.23
13312;BME280;34033;48.672;9.376;2023-09-19T08:33:34;98506.00;;;20.33;73.90
13312;BME280;34033;48.672;9.376;2023-09-19T08:36:01;98512.47;;;20.47;74.01
13312;BME280;34033;48.672;9.376;2023-09-19T08:38:26;98522.13;;;20.49;74.05
13312;BME280;34033;48.672;9.376;2023-09-19T08:40:59;98521.31;;;20.36;74.62
13312;BME280;34033;48.672;9.376;2023-09-19T08:43:27;98525.50;;;20.57;73.36
13312;BME280;34033;48.672;9.376;2023-09-19T08:46:02;98519.69;;;20.86;72.87
13312;BME280;34033;48.672;9.376;2023-09-19T08:48:31;98527.03;;;20.96;70.74
13312;BME280;34033;48.672;9.376;2023-09-19T08:51:00;98524.53;;;20.98;70.08
13312;BME280;34033;48.672;9.376;2023-09-19T08:53:36;98519.22;;;20.87;65.85
13312;BME280;34033;48.672;9.376;2023-09-19T08:56:09;98527.03;;;20.96;66.61
13312;BME280;34033;48.672;9.376;2023-09-19T08:58:41;98526.00;;;21.02;68.64
13312;BME280;34033;48.672;9.376;2023-09-19T09:01:09;98516.38;;;21.00;65.02
13312;BME280;34033;48.672;9.376;2023-09-19T09:03:35;98527.63;;;20.91;65.68
13312;BME280;34033;48.672;9.376;2023-09-19T09:06:02;98531.84;;;20.73;66.51
13312;BME280;34033;48.672;9.376;2023-09-19T09:08:30;98527.78;;;20.74;65.59
13312;BME280;34033;48.672;9.376;2023-09-19T09:10:56;98537.00;;;20.53;66.16
13312;BME280;34033;48.672;9.376;2023-09-19T09:13:24;98538.25;;;20.52;66.84
13312;BME280;34033;48.672;9.376;2023-09-19T09:15:51;98540.97;;;20.43;66.48
13312;BME280;34033;48.672;9.376;2023-09-19T09:18:17;98550.59;;;20.20;65.03
13312;BME280;34033;48.672;9.376;2023-09-19T09:20:43;98550.81;;;20.13;66.46
13312;BME280;34033;48.672;9.376;2023-09-19T09:23:10;98555.53;;;20.45;67.33
13312;BME280;34033;48.672;9.376;2023-09-19T09:28:24;98549.97;;;20.67;65.80
13312;BME280;34033;48.672;9.376;2023-09-19T09:30:50;98545.72;;;20.84;64.31
13312;BME280;34033;48.672;9.376;2023-09-19T09:33:16;98545.25;;;20.86;61.20
13312;BME280;34033;48.672;9.376;2023-09-19T09:35:58;98549.19;;;21.01;62.44
13312;BME280;34033;48.672;9.376;2023-09-19T09:38:26;98545.31;;;21.07;60.97
13312;BME280;34033;48.672;9.376;2023-09-19T09:40:58;98543.09;;;20.90;61.99
13312;BME280;34033;48.672;9.376;2023-09-19T09:43:37;98548.53;;;20.97;61.97
13312;BME280;34033;48.672;9.376;2023-09-19T09:48:45;98547.75;;;21.43;59.13
13312;BME280;34033;48.672;9.376;2023-09-19T09:51:31;98545.91;;;21.49;59.64
13312;BME280;34033;48.672;9.376;2023-09-19T09:54:17;98545.97;;;21.58;58.62
13312;BME280;34033;48.672;9.376;2023-09-19T09:56:57;98552.25;;;21.53;58.59
13312;BME280;34033;48.672;9.376;2023-09-19T09:59:53;98536.63;;;21.58;58.53
13312;BME280;34033;48.672;9.376;2023-09-19T10:02:25;98542.19;;;21.61;54.57
13312;BME280;34033;48.672;9.376;2023-09-19T10:04:55;98542.50;;;21.42;54.49
13312;BME280;34033;48.672;9.376;2023-09-19T10:07:39;98530.06;;;21.27;55.05
13312;BME280;34033;48.672;9.376;2023-09-19T10:10:07;98538.19;;;21.15;54.89
13312;BME280;34033;48.672;9.376;2023-09-19T10:12:48;98542.69;;;21.13;55.17
13312;BME280;34033;48.672;9.376;2023-09-19T10:15:16;98535.09;;;21.23;55.20
13312;BME280;34033;48.672;9.376;2023-09-19T10:17:44;98544.44;;;21.45;55.83
13312;BME280;34033;48.672;9.376;2023-09-19T10:20:15;98530.81;;;21.61;54.66
13312;BME280;34033;48.672;9.376;2023-09-19T10:23:02;98531.31;;;21.26;54.55
13312;BME280;34033;48.672;9.376;2023-09-19T10:25:29;98538.38;;;21.55;55.90
13312;BME280;34033;48.672;9.376;2023-09-19T10:27:57;98529.94;;;21.74;55.03
13312;BME280;34033;48.672;9.376;2023-09-19T10:30:24;98533.53;;;21.65;53.65
13312;BME280;34033;48.672;9.376;2023-09-19T10:33:04;98539.88;;;21.69;53.78
13312;BME280;34033;48.672;9.376;2023-09-19T10:35:32;98533.53;;;21.65;52.11
13312;BME280;34033;48.672;9.376;2023-09-19T10:38:00;98535.38;;;21.37;51.25
13312;BME280;34033;48.672;9.376;2023-09-19T10:40:29;98538.25;;;21.25;51.29
13312;BME280;34033;48.672;9.376;2023-09-19T10:43:03;98524.03;;;21.25;51.64
13312;BME280;34033;48.672;9.376;2023-09-19T10:45:34;98533.50;;;21.21;52.67
13312;BME280;34033;48.672;9.376;2023-09-19T10:48:01;98522.66;;;21.29;52.68
13312;BME280;34033;48.672;9.376;2023-09-19T10:50:33;98529.84;;;21.55;51.71
13312;BME280;34033;48.672;9.376;2023-09-19T10:53:04;98531.69;;;21.71;51.60
13312;BME280;34033;48.672;9.376;2023-09-19T10:55:31;98522.69;;;21.94;50.16
13312;BME280;34033;48.672;9.376;2023-09-19T10:57:58;98521.09;;;22.15;49.73
13312;BME280;34033;48.672;9.376;2023-09-19T11:00:58;98517.84;;;22.35;47.87
13312;BME280;34033;48.672;9.376;2023-09-19T11:03:37;98512.22;;;22.53;47.76
13312;BME280;34033;48.672;9.376;2023-09-19T11:06:17;98514.56;;;22.76;46.80
13312;BME280;34033;48.672;9.376;2023-09-19T11:09:03;98509.03;;;22.91;46.32
13312;BME280;34033;48.672;9.376;2023-09-19T11:30:31;98488.00;;;23.71;45.16
13312;BME280;34033;48.672;9.376;2023-09-19T11:36:15;98485.31;;;23.49;45.92
13312;BME280;34033;48.672;9.376;2023-09-19T11:41:36;98480.50;;;23.82;45.67
13312;BME280;34033;48.672;9.376;2023-09-19T11:49:18;98478.03;;;24.26;44.53
13312;BME280;34033;48.672;9.376;2023-09-19T11:51:50;98465.63;;;24.62;43.86
13312;BME280;34033;48.672;9.376;2023-09-19T11:54:17;98479.50;;;24.78;43.20
13312;BME280;34033;48.672;9.376;2023-09-19T11:56:51;98474.53;;;24.64;43.23
13312;BME280;34033;48.672;9.376;2023-09-19T11:59:28;98467.47;;;24.74;43.70
13312;BME280;34033;48.672;9.376;2023-09-19T12:02:04;98474.13;;;24.80;43.21
13312;BME280;34033;48.672;9.376;2023-09-19T12:04:44;98470.03;;;24.72;43.66
13312;BME280;34033;48.672;9.376;2023-09-19T12:07:14;98473.22;;;24.65;44.03
13312;BME280;34033;48.672;9.376;2023-09-19T12:09:50;98473.22;;;24.65;44.05
13312;BME280;34033;48.672;9.376;2023-09-19T12:12:34;98460.41;;;24.61;44.09
13312;BME280;34033;48.672;9.376;2023-09-19T12:14:59;98460.72;;;24.30;44.27
13312;BME280;34033;48.672;9.376;2023-09-19T12:17:46;98464.53;;;24.27;44.77
13312;BME280;34033;48.672;9.376;2023-09-19T12:20:13;98456.69;;;24.03;44.68
13312;BME280;34033;48.672;9.376;2023-09-19T12:22:42;98459.13;;;24.29;45.22
13312;BME280;34033;48.672;9.376;2023-09-19T12:25:11;98450.91;;;24.22;44.30
13312;BME280;34033;48.672;9.376;2023-09-19T12:30:10;98441.66;;;24.36;44.46
13312;BME280;34033;48.672;9.376;2023-09-19T12:32:39;98434.88;;;24.57;45.66
13312;BME280;34033;48.672;9.376;2023-09-19T12:35:06;98430.91;;;24.78;45.26
13312;BME280;34033;48.672;9.376;2023-09-19T12:37:36;98437.53;;;24.61;43.79
13312;BME280;34033;48.672;9.376;2023-09-19T12:40:08;98438.41;;;24.19;44.57
13312;BME280;34033;48.672;9.376;2023-09-19T12:42:46;98433.97;;;24.18;44.52
13312;BME280;34033;48.672;9.376;2023-09-19T12:45:13;98430.94;;;24.13;45.33
13312;BME280;34033;48.672;9.376;2023-09-19T12:47:40;98424.38;;;23.79;45.87
13312;BME280;34033;48.672;9.376;2023-09-19T12:50:26;98431.38;;;23.78;46.97
13312;BME280;34033;48.672;9.376;2023-09-19T12:52:55;98434.25;;;23.69;47.06
13312;BME280;34033;48.672;9.376;2023-09-19T12:55:29;98436.00;;;23.76;46.73
13312;BME280;34033;48.672;9.376;2023-09-19T12:58:13;98432.25;;;24.02;46.56
13312;BME280;34033;48.672;9.376;2023-09-19T13:00:44;98428.94;;;23.95;45.75
13312;BME280;34033;48.672;9.376;2023-09-19T13:08:28;98424.44;;;23.70;46.12
13312;BME280;34033;48.672;9.376;2023-09-19T13:16:21;98419.09;;;24.38;44.39
13312;BME280;34033;48.672;9.376;2023-09-19T13:18:51;98417.22;;;24.35;44.98
13312;BME280;34033;48.672;9.376;2023-09-19T13:21:27;98414.84;;;24.33;44.92
13312;BME280;34033;48.672;9.376;2023-09-19T13:23:55;98418.75;;;24.45;44.47
13312;BME280;34033;48.672;9.376;2023-09-19T13:26:27;98406.16;;;24.75;43.90
13312;BME280;34033;48.672;9.376;2023-09-19T13:28:54;98403.72;;;25.07;43.05
13312;BME280;34033;48.672;9.376;2023-09-19T13:31:19;98408.34;;;25.04;42.41
13312;BME280;34033;48.672;9.376;2023-09-19T13:33:46;98415.63;;;24.90;42.26
13312;BME280;34033;48.672;9.376;2023-09-19T13:36:13;98408.09;;;24.93;43.15
13312;BME280;34033;48.672;9.376;2023-09-19T13:38:42;98405.31;;;25.08;43.57
13312;BME280;34033;48.672;9.376;2023-09-19T13:41:09;98404.06;;;24.76;42.47
13312;BME280;34033;48.672;9.376;2023-09-19T13:43:36;98399.09;;;24.85;43.24
13312;BME280;34033;48.672;9.376;2023-09-19T13:46:01;98405.63;;;24.86;42.99
13312;BME280;34033;48.672;9.376;2023-09-19T13:48:27;98405.00;;;25.06;43.41
13312;BME280;34033;48.672;9.376;2023-09-19T13:50:55;98398.69;;;25.02;43.22
13312;BME280;34033;48.672;9.376;2023-09-19T13:53:21;98408.63;;;24.82;43.24
13312;BME280;34033;48.672;9.376;2023-09-19T13:55:46;98397.81;;;24.39;43.89
13312;BME280;34033;48.672;9.376;2023-09-19T13:58:13;98397.03;;;24.62;44.02
13312;BME280;34033;48.672;9.376;2023-09-19T14:00:39;98384.94;;;24.67;43.53
13312;BME280;34033;48.672;9.376;2023-09-19T14:03:04;98382.22;;;25.11;43.06
13312;BME280;34033;48.672;9.376;2023-09-19T14:05:30;98373.44;;;25.00;42.29
13312;BME280;34033;48.672;9.376;2023-09-19T14:07:56;98383.75;;;25.51;41.55
13312;BME280;34033;48.672;9.376;2023-09-19T14:10:22;98380.63;;;25.63;40.70